Abbotsford, WI (54405)

12:32 AM CST on February 14, 2016 (GMT -0600)
WIDOT | | Change Station
CLOSE
Current Station
Personal Weather Station
Location: Abbotsford, WI
Elevation: 1400 ft
Nearby Weather Stations

Elev 1400 ft 44.95 °N, 90.27 °W | Updated 39 minutes ago

Clear
Clear
-12.0 °F
Feels Like -12.0 °F
N
0.0
Wind Variable Wind from East
Gusts 0.0 mph

Today
High -- | Low -- °F
--% Chance of Precip.
Yesterday
High -- | Low -- °F
Precip. -- in
Pressure 30.31 in
Visibility 10.0 miles
Clouds Clear
Dew Point -18.0 °F
Humidity 75%
Rainfall in
Snow Depth Not available.
7:04 AM 5:27 PM
Waxing Crescent, 38% visible
METAR KMDZ 140615Z AUTO 00000KT 10SM CLR M25/M28 A3031 RMK AO2 T12511283
Pressure 30.31 in
Visibility 10.0 miles
Clouds Clear
Dew Point -18.0 °F
Humidity 75%
Rainfall in
Snow Depth Not available.
7:04 AM 5:27 PM
Waxing Crescent, 38% visible
METAR KMDZ 140615Z AUTO 00000KT 10SM CLR M25/M28 A3031 RMK AO2 T12511283

10-Day Weather Forecast

Almanac

Astronomy

Feb. 14, 2016 Rise Set
Actual Time
Civil Twilight
Nautical Twilight
Astronomical Twilight
Moon
Length of Visible Light
Length of Day
Tomorrow will be .
, % of the Moon is Illuminated

Today's Extremes

State Highs State Lows

Community

WunderPhotos

Upload Photos

1,892,757 photos uploaded!

WunderBlog® & News

Nearby

Air Quality

  Air Quality AQ Index Pollutant
Not available.

Snow Depth

Station Depth Elevation

Earthquake Activity

City Distance Mag. Time & Date
Minimum magnitude displayed is 2.5.

Coastal Water Temperatures

Place Temperature

Stations

Nearby Weather Stations

Station Location Temp. Windchill Dew Point Humidity Wind Precip. Elev Updated Type
                   

Watches & Warnings

There are currently no watches in effect.